sensor_id;sensor_type;location;lat;lon;timestamp;P1;durP1;ratioP1;P2;durP2;ratioP2
37931;SDS011;23758;42.640;23.302;2023-05-07T00:00:04;2.70;;;2.50;;
37931;SDS011;23758;42.640;23.302;2023-05-07T00:02:34;2.90;;;2.70;;
37931;SDS011;23758;42.640;23.302;2023-05-07T00:04:59;2.70;;;2.50;;
37931;SDS011;23758;42.640;23.302;2023-05-07T00:07:25;2.80;;;2.60;;
37931;SDS011;23758;42.640;23.302;2023-05-07T00:09:50;2.90;;;2.70;;
37931;SDS011;23758;42.640;23.302;2023-05-07T00:12:16;2.90;;;2.70;;
37931;SDS011;23758;42.640;23.302;2023-05-07T00:14:41;2.88;;;2.67;;
37931;SDS011;23758;42.640;23.302;2023-05-07T00:17:07;2.80;;;2.60;;
37931;SDS011;23758;42.640;23.302;2023-05-07T00:19:32;2.90;;;2.70;;
37931;SDS011;23758;42.640;23.302;2023-05-07T00:21:58;2.90;;;2.70;;
37931;SDS011;23758;42.640;23.302;2023-05-07T00:24:23;2.90;;;2.70;;
37931;SDS011;23758;42.640;23.302;2023-05-07T00:26:49;2.63;;;2.42;;
37931;SDS011;23758;42.640;23.302;2023-05-07T00:29:15;2.70;;;2.50;;
37931;SDS011;23758;42.640;23.302;2023-05-07T00:31:40;3.00;;;2.80;;
37931;SDS011;23758;42.640;23.302;2023-05-07T00:34:06;3.60;;;3.30;;
37931;SDS011;23758;42.640;23.302;2023-05-07T00:36:31;2.90;;;2.70;;
37931;SDS011;23758;42.640;23.302;2023-05-07T00:38:58;2.72;;;2.53;;
37931;SDS011;23758;42.640;23.302;2023-05-07T00:41:25;3.00;;;2.80;;
37931;SDS011;23758;42.640;23.302;2023-05-07T00:43:51;3.03;;;2.83;;
37931;SDS011;23758;42.640;23.302;2023-05-07T00:46:16;2.90;;;2.70;;
37931;SDS011;23758;42.640;23.302;2023-05-07T00:48:42;2.90;;;2.70;;
37931;SDS011;23758;42.640;23.302;2023-05-07T00:51:09;3.00;;;2.80;;
37931;SDS011;23758;42.640;23.302;2023-05-07T00:53:36;3.00;;;2.80;;
37931;SDS011;23758;42.640;23.302;2023-05-07T00:56:01;2.97;;;2.78;;
37931;SDS011;23758;42.640;23.302;2023-05-07T00:58:27;3.00;;;2.80;;
37931;SDS011;23758;42.640;23.302;2023-05-07T01:00:52;3.00;;;2.80;;
37931;SDS011;23758;42.640;23.302;2023-05-07T01:03:18;3.15;;;2.95;;
37931;SDS011;23758;42.640;23.302;2023-05-07T01:05:43;2.85;;;2.65;;
37931;SDS011;23758;42.640;23.302;2023-05-07T01:08:10;2.70;;;2.50;;
37931;SDS011;23758;42.640;23.302;2023-05-07T01:10:36;2.80;;;2.60;;
37931;SDS011;23758;42.640;23.302;2023-05-07T01:13:02;2.70;;;2.50;;
37931;SDS011;23758;42.640;23.302;2023-05-07T01:15:28;3.00;;;2.80;;
37931;SDS011;23758;42.640;23.302;2023-05-07T01:17:53;2.83;;;2.63;;
37931;SDS011;23758;42.640;23.302;2023-05-07T01:20:19;2.85;;;2.65;;
37931;SDS011;23758;42.640;23.302;2023-05-07T01:22:44;2.83;;;2.63;;
37931;SDS011;23758;42.640;23.302;2023-05-07T01:25:10;2.92;;;2.72;;
37931;SDS011;23758;42.640;23.302;2023-05-07T01:27:35;3.22;;;3.03;;
37931;SDS011;23758;42.640;23.302;2023-05-07T01:30:04;2.78;;;2.58;;
37931;SDS011;23758;42.640;23.302;2023-05-07T01:32:35;2.70;;;2.50;;
37931;SDS011;23758;42.640;23.302;2023-05-07T01:35:03;3.10;;;2.90;;
37931;SDS011;23758;42.640;23.302;2023-05-07T01:37:30;2.90;;;2.70;;
37931;SDS011;23758;42.640;23.302;2023-05-07T01:39:56;2.90;;;2.70;;
37931;SDS011;23758;42.640;23.302;2023-05-07T01:42:21;3.13;;;2.92;;
37931;SDS011;23758;42.640;23.302;2023-05-07T01:44:47;3.20;;;3.00;;
37931;SDS011;23758;42.640;23.302;2023-05-07T01:47:13;3.08;;;2.88;;
37931;SDS011;23758;42.640;23.302;2023-05-07T01:49:39;2.80;;;2.60;;
37931;SDS011;23758;42.640;23.302;2023-05-07T01:52:05;2.80;;;2.60;;
37931;SDS011;23758;42.640;23.302;2023-05-07T01:54:30;2.92;;;2.70;;
37931;SDS011;23758;42.640;23.302;2023-05-07T01:56:56;2.80;;;2.60;;
37931;SDS011;23758;42.640;23.302;2023-05-07T01:59:22;3.15;;;2.95;;
37931;SDS011;23758;42.640;23.302;2023-05-07T02:01:47;3.40;;;3.20;;
37931;SDS011;23758;42.640;23.302;2023-05-07T02:04:13;2.90;;;2.70;;
37931;SDS011;23758;42.640;23.302;2023-05-07T02:06:38;3.00;;;2.80;;
37931;SDS011;23758;42.640;23.302;2023-05-07T02:09:04;2.95;;;2.75;;
37931;SDS011;23758;42.640;23.302;2023-05-07T02:11:30;2.95;;;2.75;;
37931;SDS011;23758;42.640;23.302;2023-05-07T02:13:55;3.50;;;3.30;;
37931;SDS011;23758;42.640;23.302;2023-05-07T02:16:20;3.10;;;2.90;;
37931;SDS011;23758;42.640;23.302;2023-05-07T02:18:47;3.25;;;3.05;;
37931;SDS011;23758;42.640;23.302;2023-05-07T02:21:12;3.25;;;3.05;;
37931;SDS011;23758;42.640;23.302;2023-05-07T02:23:38;3.00;;;2.80;;
37931;SDS011;23758;42.640;23.302;2023-05-07T02:26:03;3.20;;;3.00;;
37931;SDS011;23758;42.640;23.302;2023-05-07T02:28:29;3.20;;;3.00;;
37931;SDS011;23758;42.640;23.302;2023-05-07T02:30:54;3.28;;;3.08;;
37931;SDS011;23758;42.640;23.302;2023-05-07T02:33:20;3.15;;;2.95;;
37931;SDS011;23758;42.640;23.302;2023-05-07T02:35:46;3.20;;;3.00;;
37931;SDS011;23758;42.640;23.302;2023-05-07T02:38:11;3.10;;;2.90;;
37931;SDS011;23758;42.640;23.302;2023-05-07T02:40:37;3.40;;;3.20;;
37931;SDS011;23758;42.640;23.302;2023-05-07T02:43:05;3.97;;;2.92;;
37931;SDS011;23758;42.640;23.302;2023-05-07T02:45:31;6.05;;;3.63;;
37931;SDS011;23758;42.640;23.302;2023-05-07T02:47:57;3.58;;;3.38;;
37931;SDS011;23758;42.640;23.302;2023-05-07T02:50:23;3.40;;;3.15;;
37931;SDS011;23758;42.640;23.302;2023-05-07T02:52:48;3.40;;;3.20;;
37931;SDS011;23758;42.640;23.302;2023-05-07T02:55:14;3.40;;;3.20;;
37931;SDS011;23758;42.640;23.302;2023-05-07T02:57:39;3.40;;;3.20;;
37931;SDS011;23758;42.640;23.302;2023-05-07T03:00:15;3.47;;;3.28;;
37931;SDS011;23758;42.640;23.302;2023-05-07T03:02:41;3.53;;;3.30;;
37931;SDS011;23758;42.640;23.302;2023-05-07T03:05:07;3.20;;;3.00;;
37931;SDS011;23758;42.640;23.302;2023-05-07T03:07:34;3.28;;;3.08;;
37931;SDS011;23758;42.640;23.302;2023-05-07T03:10:00;3.20;;;3.00;;
37931;SDS011;23758;42.640;23.302;2023-05-07T03:12:25;3.17;;;2.97;;
37931;SDS011;23758;42.640;23.302;2023-05-07T03:14:51;3.70;;;3.50;;
37931;SDS011;23758;42.640;23.302;2023-05-07T03:17:16;3.25;;;3.05;;
37931;SDS011;23758;42.640;23.302;2023-05-07T03:19:42;3.30;;;3.10;;
37931;SDS011;23758;42.640;23.302;2023-05-07T03:22:07;3.60;;;3.30;;
37931;SDS011;23758;42.640;23.302;2023-05-07T03:24:33;3.38;;;3.17;;
37931;SDS011;23758;42.640;23.302;2023-05-07T03:26:58;3.30;;;3.10;;
37931;SDS011;23758;42.640;23.302;2023-05-07T03:29:23;3.42;;;3.15;;
37931;SDS011;23758;42.640;23.302;2023-05-07T03:31:49;3.47;;;3.28;;
37931;SDS011;23758;42.640;23.302;2023-05-07T03:34:14;3.30;;;3.10;;
37931;SDS011;23758;42.640;23.302;2023-05-07T03:36:42;3.55;;;3.35;;
37931;SDS011;23758;42.640;23.302;2023-05-07T03:39:07;3.25;;;3.05;;
37931;SDS011;23758;42.640;23.302;2023-05-07T03:41:33;3.10;;;2.90;;
37931;SDS011;23758;42.640;23.302;2023-05-07T03:43:58;3.58;;;3.38;;
37931;SDS011;23758;42.640;23.302;2023-05-07T03:46:24;3.00;;;2.80;;
37931;SDS011;23758;42.640;23.302;2023-05-07T03:48:51;2.95;;;2.75;;
37931;SDS011;23758;42.640;23.302;2023-05-07T03:51:17;3.35;;;3.15;;
37931;SDS011;23758;42.640;23.302;2023-05-07T03:53:42;3.10;;;2.90;;
37931;SDS011;23758;42.640;23.302;2023-05-07T03:56:08;3.40;;;3.20;;
37931;SDS011;23758;42.640;23.302;2023-05-07T03:58:33;3.10;;;2.90;;
37931;SDS011;23758;42.640;23.302;2023-05-07T04:00:59;3.20;;;3.00;;
37931;SDS011;23758;42.640;23.302;2023-05-07T04:03:25;3.15;;;2.95;;
37931;SDS011;23758;42.640;23.302;2023-05-07T04:05:50;3.25;;;3.05;;
37931;SDS011;23758;42.640;23.302;2023-05-07T04:08:16;3.13;;;2.92;;
37931;SDS011;23758;42.640;23.302;2023-05-07T04:10:41;2.95;;;2.75;;
37931;SDS011;23758;42.640;23.302;2023-05-07T04:13:07;2.90;;;2.70;;
37931;SDS011;23758;42.640;23.302;2023-05-07T04:15:32;3.10;;;2.90;;
37931;SDS011;23758;42.640;23.302;2023-05-07T04:17:58;3.05;;;2.85;;
37931;SDS011;23758;42.640;23.302;2023-05-07T04:20:23;2.95;;;2.75;;
37931;SDS011;23758;42.640;23.302;2023-05-07T04:22:48;3.00;;;2.80;;
37931;SDS011;23758;42.640;23.302;2023-05-07T04:25:15;3.13;;;2.92;;
37931;SDS011;23758;42.640;23.302;2023-05-07T04:27:41;2.70;;;2.50;;
37931;SDS011;23758;42.640;23.302;2023-05-07T04:30:07;2.90;;;2.70;;
37931;SDS011;23758;42.640;23.302;2023-05-07T04:32:33;2.78;;;2.58;;
37931;SDS011;23758;42.640;23.302;2023-05-07T04:34:58;2.63;;;2.45;;
37931;SDS011;23758;42.640;23.302;2023-05-07T04:37:25;2.70;;;2.50;;
37931;SDS011;23758;42.640;23.302;2023-05-07T04:39:50;2.70;;;2.50;;
37931;SDS011;23758;42.640;23.302;2023-05-07T04:42:16;2.40;;;2.30;;
37931;SDS011;23758;42.640;23.302;2023-05-07T04:44:43;2.70;;;2.50;;
37931;SDS011;23758;42.640;23.302;2023-05-07T04:47:09;2.30;;;2.20;;
37931;SDS011;23758;42.640;23.302;2023-05-07T04:49:35;2.33;;;2.13;;
37931;SDS011;23758;42.640;23.302;2023-05-07T04:52:00;1.95;;;1.85;;
37931;SDS011;23758;42.640;23.302;2023-05-07T04:54:26;1.80;;;1.70;;
37931;SDS011;23758;42.640;23.302;2023-05-07T04:56:51;1.83;;;1.73;;
37931;SDS011;23758;42.640;23.302;2023-05-07T04:59:17;1.50;;;1.40;;
37931;SDS011;23758;42.640;23.302;2023-05-07T05:01:43;2.72;;;1.50;;
37931;SDS011;23758;42.640;23.302;2023-05-07T05:04:08;1.70;;;1.60;;
37931;SDS011;23758;42.640;23.302;2023-05-07T05:06:33;1.70;;;1.60;;
37931;SDS011;23758;42.640;23.302;2023-05-07T05:08:59;1.65;;;1.55;;
37931;SDS011;23758;42.640;23.302;2023-05-07T05:11:24;1.77;;;1.48;;
37931;SDS011;23758;42.640;23.302;2023-05-07T05:13:50;3.42;;;2.22;;
37931;SDS011;23758;42.640;23.302;2023-05-07T05:16:15;1.73;;;1.63;;
37931;SDS011;23758;42.640;23.302;2023-05-07T05:18:41;1.73;;;1.63;;
37931;SDS011;23758;42.640;23.302;2023-05-07T05:21:06;1.75;;;1.65;;
37931;SDS011;23758;42.640;23.302;2023-05-07T05:23:32;1.70;;;1.60;;
37931;SDS011;23758;42.640;23.302;2023-05-07T05:25:57;2.00;;;1.90;;
37931;SDS011;23758;42.640;23.302;2023-05-07T05:28:23;2.08;;;1.98;;
37931;SDS011;23758;42.640;23.302;2023-05-07T05:30:49;2.53;;;2.33;;
37931;SDS011;23758;42.640;23.302;2023-05-07T05:33:15;2.10;;;2.00;;
37931;SDS011;23758;42.640;23.302;2023-05-07T05:35:40;2.10;;;2.00;;
37931;SDS011;23758;42.640;23.302;2023-05-07T05:38:06;2.60;;;2.40;;
37931;SDS011;23758;42.640;23.302;2023-05-07T05:40:31;2.00;;;1.90;;
37931;SDS011;23758;42.640;23.302;2023-05-07T05:42:58;2.20;;;2.10;;
37931;SDS011;23758;42.640;23.302;2023-05-07T05:45:23;2.10;;;2.00;;
37931;SDS011;23758;42.640;23.302;2023-05-07T05:47:49;2.65;;;2.45;;
37931;SDS011;23758;42.640;23.302;2023-05-07T05:50:15;2.55;;;2.35;;
37931;SDS011;23758;42.640;23.302;2023-05-07T05:52:40;2.25;;;2.15;;
37931;SDS011;23758;42.640;23.302;2023-05-07T05:55:06;2.30;;;2.20;;
37931;SDS011;23758;42.640;23.302;2023-05-07T05:57:32;2.70;;;2.50;;
37931;SDS011;23758;42.640;23.302;2023-05-07T05:59:57;2.50;;;2.30;;
37931;SDS011;23758;42.640;23.302;2023-05-07T06:02:23;2.40;;;2.22;;
37931;SDS011;23758;42.640;23.302;2023-05-07T06:04:48;2.15;;;2.05;;
37931;SDS011;23758;42.640;23.302;2023-05-07T06:07:14;2.80;;;2.60;;
37931;SDS011;23758;42.640;23.302;2023-05-07T06:09:39;2.70;;;2.50;;
37931;SDS011;23758;42.640;23.302;2023-05-07T06:12:05;2.65;;;2.45;;
37931;SDS011;23758;42.640;23.302;2023-05-07T06:14:30;2.65;;;2.47;;
37931;SDS011;23758;42.640;23.302;2023-05-07T06:16:56;2.63;;;2.42;;
37931;SDS011;23758;42.640;23.302;2023-05-07T06:19:22;2.63;;;2.42;;
37931;SDS011;23758;42.640;23.302;2023-05-07T06:21:49;2.50;;;2.30;;
37931;SDS011;23758;42.640;23.302;2023-05-07T06:24:15;4.07;;;2.35;;
37931;SDS011;23758;42.640;23.302;2023-05-07T06:26:40;2.60;;;2.40;;
37931;SDS011;23758;42.640;23.302;2023-05-07T06:29:06;2.55;;;2.35;;
37931;SDS011;23758;42.640;23.302;2023-05-07T06:31:31;2.78;;;2.58;;
37931;SDS011;23758;42.640;23.302;2023-05-07T06:33:57;2.20;;;2.10;;
37931;SDS011;23758;42.640;23.302;2023-05-07T06:36:23;2.60;;;2.40;;
37931;SDS011;23758;42.640;23.302;2023-05-07T06:38:49;2.30;;;2.20;;
37931;SDS011;23758;42.640;23.302;2023-05-07T06:41:15;2.10;;;2.00;;
37931;SDS011;23758;42.640;23.302;2023-05-07T06:43:40;2.40;;;2.30;;
37931;SDS011;23758;42.640;23.302;2023-05-07T06:46:06;2.95;;;2.75;;
37931;SDS011;23758;42.640;23.302;2023-05-07T06:48:31;2.70;;;2.50;;
37931;SDS011;23758;42.640;23.302;2023-05-07T06:50:57;2.53;;;2.38;;
37931;SDS011;23758;42.640;23.302;2023-05-07T06:53:23;2.22;;;2.10;;
37931;SDS011;23758;42.640;23.302;2023-05-07T06:55:49;2.20;;;2.10;;
37931;SDS011;23758;42.640;23.302;2023-05-07T06:58:14;2.10;;;2.00;;
37931;SDS011;23758;42.640;23.302;2023-05-07T07:00:39;2.50;;;2.30;;
37931;SDS011;23758;42.640;23.302;2023-05-07T07:03:06;4.22;;;2.20;;
37931;SDS011;23758;42.640;23.302;2023-05-07T07:05:31;2.00;;;1.90;;
37931;SDS011;23758;42.640;23.302;2023-05-07T07:07:57;2.20;;;2.10;;
37931;SDS011;23758;42.640;23.302;2023-05-07T07:10:22;2.03;;;1.92;;
37931;SDS011;23758;42.640;23.302;2023-05-07T07:12:48;2.28;;;2.17;;
37931;SDS011;23758;42.640;23.302;2023-05-07T07:15:14;2.45;;;2.28;;
37931;SDS011;23758;42.640;23.302;2023-05-07T07:17:40;2.10;;;2.00;;
37931;SDS011;23758;42.640;23.302;2023-05-07T07:20:06;2.63;;;2.42;;
37931;SDS011;23758;42.640;23.302;2023-05-07T07:22:32;2.30;;;2.10;;
37931;SDS011;23758;42.640;23.302;2023-05-07T07:24:57;2.20;;;2.05;;
37931;SDS011;23758;42.640;23.302;2023-05-07T07:27:23;1.95;;;1.85;;
37931;SDS011;23758;42.640;23.302;2023-05-07T07:29:48;2.15;;;2.00;;
37931;SDS011;23758;42.640;23.302;2023-05-07T07:32:14;2.40;;;2.20;;
37931;SDS011;23758;42.640;23.302;2023-05-07T07:34:40;2.10;;;2.00;;
37931;SDS011;23758;42.640;23.302;2023-05-07T07:37:05;2.20;;;2.10;;
37931;SDS011;23758;42.640;23.302;2023-05-07T07:39:34;1.95;;;1.85;;
37931;SDS011;23758;42.640;23.302;2023-05-07T07:42:02;2.13;;;2.03;;
37931;SDS011;23758;42.640;23.302;2023-05-07T07:44:28;1.90;;;1.80;;
37931;SDS011;23758;42.640;23.302;2023-05-07T07:46:53;1.83;;;1.73;;
37931;SDS011;23758;42.640;23.302;2023-05-07T07:49:18;1.90;;;1.77;;
37931;SDS011;23758;42.640;23.302;2023-05-07T07:51:44;2.10;;;2.00;;
37931;SDS011;23758;42.640;23.302;2023-05-07T07:54:10;1.90;;;1.80;;
37931;SDS011;23758;42.640;23.302;2023-05-07T07:56:36;2.53;;;2.25;;
37931;SDS011;23758;42.640;23.302;2023-05-07T07:59:01;2.00;;;1.90;;
37931;SDS011;23758;42.640;23.302;2023-05-07T08:01:28;1.90;;;1.80;;
37931;SDS011;23758;42.640;23.302;2023-05-07T08:03:55;2.00;;;1.85;;
37931;SDS011;23758;42.640;23.302;2023-05-07T08:06:20;1.80;;;1.70;;
37931;SDS011;23758;42.640;23.302;2023-05-07T08:08:46;2.08;;;1.90;;
37931;SDS011;23758;42.640;23.302;2023-05-07T08:11:11;2.10;;;1.90;;
37931;SDS011;23758;42.640;23.302;2023-05-07T08:13:36;2.08;;;1.98;;
37931;SDS011;23758;42.640;23.302;2023-05-07T08:16:03;1.80;;;1.70;;
37931;SDS011;23758;42.640;23.302;2023-05-07T08:18:29;2.10;;;1.92;;
37931;SDS011;23758;42.640;23.302;2023-05-07T08:20:55;1.70;;;1.60;;
37931;SDS011;23758;42.640;23.302;2023-05-07T08:23:20;1.70;;;1.60;;
37931;SDS011;23758;42.640;23.302;2023-05-07T08:25:46;2.20;;;1.80;;
37931;SDS011;23758;42.640;23.302;2023-05-07T08:28:11;1.80;;;1.70;;
37931;SDS011;23758;42.640;23.302;2023-05-07T08:30:37;2.17;;;2.08;;
37931;SDS011;23758;42.640;23.302;2023-05-07T08:33:02;1.60;;;1.50;;
37931;SDS011;23758;42.640;23.302;2023-05-07T08:35:28;1.70;;;1.60;;
37931;SDS011;23758;42.640;23.302;2023-05-07T08:37:53;1.70;;;1.60;;
37931;SDS011;23758;42.640;23.302;2023-05-07T08:40:19;2.58;;;2.05;;
37931;SDS011;23758;42.640;23.302;2023-05-07T08:42:48;2.03;;;1.77;;
37931;SDS011;23758;42.640;23.302;2023-05-07T08:45:14;1.90;;;1.80;;
37931;SDS011;23758;42.640;23.302;2023-05-07T08:47:44;1.77;;;1.67;;
37931;SDS011;23758;42.640;23.302;2023-05-07T08:50:12;2.10;;;2.00;;
37931;SDS011;23758;42.640;23.302;2023-05-07T08:52:39;2.08;;;1.88;;
37931;SDS011;23758;42.640;23.302;2023-05-07T08:55:05;2.33;;;2.20;;
37931;SDS011;23758;42.640;23.302;2023-05-07T08:57:31;1.65;;;1.55;;
37931;SDS011;23758;42.640;23.302;2023-05-07T08:59:57;2.05;;;1.95;;
37931;SDS011;23758;42.640;23.302;2023-05-07T09:02:22;1.92;;;1.83;;
37931;SDS011;23758;42.640;23.302;2023-05-07T09:04:48;1.80;;;1.70;;
37931;SDS011;23758;42.640;23.302;2023-05-07T09:07:13;1.90;;;1.80;;
37931;SDS011;23758;42.640;23.302;2023-05-07T09:09:39;2.00;;;1.90;;
37931;SDS011;23758;42.640;23.302;2023-05-07T09:12:04;2.28;;;2.10;;
37931;SDS011;23758;42.640;23.302;2023-05-07T09:14:30;1.90;;;1.80;;
37931;SDS011;23758;42.640;23.302;2023-05-07T09:16:56;2.28;;;2.15;;
37931;SDS011;23758;42.640;23.302;2023-05-07T09:19:25;2.00;;;1.90;;
37931;SDS011;23758;42.640;23.302;2023-05-07T09:22:00;1.90;;;1.80;;
37931;SDS011;23758;42.640;23.302;2023-05-07T09:24:30;2.05;;;1.95;;
37931;SDS011;23758;42.640;23.302;2023-05-07T09:27:00;2.05;;;1.95;;
37931;SDS011;23758;42.640;23.302;2023-05-07T09:29:26;1.90;;;1.80;;
37931;SDS011;23758;42.640;23.302;2023-05-07T09:31:54;2.00;;;1.90;;
37931;SDS011;23758;42.640;23.302;2023-05-07T09:34:19;1.83;;;1.73;;
37931;SDS011;23758;42.640;23.302;2023-05-07T09:36:45;1.90;;;1.80;;
37931;SDS011;23758;42.640;23.302;2023-05-07T09:39:10;1.75;;;1.65;;
37931;SDS011;23758;42.640;23.302;2023-05-07T09:41:43;1.95;;;1.85;;
37931;SDS011;23758;42.640;23.302;2023-05-07T09:44:09;1.80;;;1.70;;
37931;SDS011;23758;42.640;23.302;2023-05-07T09:46:36;1.70;;;1.60;;
37931;SDS011;23758;42.640;23.302;2023-05-07T09:49:02;2.10;;;2.00;;
37931;SDS011;23758;42.640;23.302;2023-05-07T09:51:37;2.00;;;1.90;;
37931;SDS011;23758;42.640;23.302;2023-05-07T09:54:08;1.80;;;1.70;;
37931;SDS011;23758;42.640;23.302;2023-05-07T09:56:35;2.08;;;1.98;;
37931;SDS011;23758;42.640;23.302;2023-05-07T09:59:02;2.13;;;2.00;;
37931;SDS011;23758;42.640;23.302;2023-05-07T10:01:29;2.20;;;2.10;;
37931;SDS011;23758;42.640;23.302;2023-05-07T10:03:56;2.53;;;2.33;;
37931;SDS011;23758;42.640;23.302;2023-05-07T10:06:23;1.85;;;1.75;;
37931;SDS011;23758;42.640;23.302;2023-05-07T10:08:50;1.98;;;1.88;;
37931;SDS011;23758;42.640;23.302;2023-05-07T10:11:17;5.93;;;2.10;;
37931;SDS011;23758;42.640;23.302;2023-05-07T10:13:43;2.00;;;1.90;;
37931;SDS011;23758;42.640;23.302;2023-05-07T10:16:08;1.92;;;1.83;;
37931;SDS011;23758;42.640;23.302;2023-05-07T10:18:34;2.30;;;2.15;;
37931;SDS011;23758;42.640;23.302;2023-05-07T10:21:02;1.90;;;1.80;;
37931;SDS011;23758;42.640;23.302;2023-05-07T10:23:31;2.00;;;1.90;;
37931;SDS011;23758;42.640;23.302;2023-05-07T10:25:57;2.00;;;1.90;;
37931;SDS011;23758;42.640;23.302;2023-05-07T10:28:23;2.00;;;1.90;;
37931;SDS011;23758;42.640;23.302;2023-05-07T10:33:19;1.60;;;1.50;;
37931;SDS011;23758;42.640;23.302;2023-05-07T10:35:48;1.70;;;1.60;;
37931;SDS011;23758;42.640;23.302;2023-05-07T10:38:14;2.03;;;1.92;;
37931;SDS011;23758;42.640;23.302;2023-05-07T10:40:39;1.90;;;1.80;;
37931;SDS011;23758;42.640;23.302;2023-05-07T10:43:05;1.80;;;1.70;;
37931;SDS011;23758;42.640;23.302;2023-05-07T10:45:31;2.00;;;1.90;;
37931;SDS011;23758;42.640;23.302;2023-05-07T10:48:07;2.00;;;1.90;;
37931;SDS011;23758;42.640;23.302;2023-05-07T10:50:36;2.03;;;1.92;;
37931;SDS011;23758;42.640;23.302;2023-05-07T10:55:43;2.10;;;2.00;;
37931;SDS011;23758;42.640;23.302;2023-05-07T11:00:57;2.10;;;2.00;;
37931;SDS011;23758;42.640;23.302;2023-05-07T11:03:24;2.10;;;2.00;;
37931;SDS011;23758;42.640;23.302;2023-05-07T11:08:54;2.05;;;1.95;;
37931;SDS011;23758;42.640;23.302;2023-05-07T11:17:10;1.80;;;1.70;;
37931;SDS011;23758;42.640;23.302;2023-05-07T11:19:49;1.75;;;1.65;;
37931;SDS011;23758;42.640;23.302;2023-05-07T11:24:59;1.83;;;1.50;;
37931;SDS011;23758;42.640;23.302;2023-05-07T11:27:25;1.83;;;1.73;;
37931;SDS011;23758;42.640;23.302;2023-05-07T11:29:51;1.90;;;1.80;;
37931;SDS011;23758;42.640;23.302;2023-05-07T11:32:24;1.83;;;1.73;;
37931;SDS011;23758;42.640;23.302;2023-05-07T11:34:53;1.50;;;1.40;;
37931;SDS011;23758;42.640;23.302;2023-05-07T11:37:20;1.80;;;1.70;;
37931;SDS011;23758;42.640;23.302;2023-05-07T11:39:46;1.50;;;1.40;;
37931;SDS011;23758;42.640;23.302;2023-05-07T11:42:31;2.80;;;1.60;;
37931;SDS011;23758;42.640;23.302;2023-05-07T11:45:03;1.60;;;1.50;;
37931;SDS011;23758;42.640;23.302;2023-05-07T11:47:31;1.60;;;1.50;;
37931;SDS011;23758;42.640;23.302;2023-05-07T11:49:56;1.50;;;1.40;;
37931;SDS011;23758;42.640;23.302;2023-05-07T11:52:23;1.70;;;1.60;;
37931;SDS011;23758;42.640;23.302;2023-05-07T11:54:55;1.60;;;1.50;;
37931;SDS011;23758;42.640;23.302;2023-05-07T11:57:22;2.33;;;2.13;;
37931;SDS011;23758;42.640;23.302;2023-05-07T11:59:52;1.80;;;1.70;;
37931;SDS011;23758;42.640;23.302;2023-05-07T12:02:21;1.70;;;1.60;;
37931;SDS011;23758;42.640;23.302;2023-05-07T12:04:46;1.70;;;1.60;;
37931;SDS011;23758;42.640;23.302;2023-05-07T12:07:12;1.70;;;1.60;;
37931;SDS011;23758;42.640;23.302;2023-05-07T12:09:38;1.90;;;1.80;;
37931;SDS011;23758;42.640;23.302;2023-05-07T12:12:05;1.67;;;1.58;;
37931;SDS011;23758;42.640;23.302;2023-05-07T12:14:31;1.67;;;1.58;;
37931;SDS011;23758;42.640;23.302;2023-05-07T12:16:57;1.75;;;1.65;;
37931;SDS011;23758;42.640;23.302;2023-05-07T12:19:24;1.70;;;1.60;;
37931;SDS011;23758;42.640;23.302;2023-05-07T12:21:49;1.80;;;1.70;;
37931;SDS011;23758;42.640;23.302;2023-05-07T12:24:15;1.60;;;1.50;;
37931;SDS011;23758;42.640;23.302;2023-05-07T12:26:40;1.60;;;1.50;;
37931;SDS011;23758;42.640;23.302;2023-05-07T12:29:06;1.80;;;1.70;;
37931;SDS011;23758;42.640;23.302;2023-05-07T12:31:32;1.90;;;1.80;;
37931;SDS011;23758;42.640;23.302;2023-05-07T12:33:57;2.13;;;2.03;;
37931;SDS011;23758;42.640;23.302;2023-05-07T12:36:23;2.00;;;1.90;;
37931;SDS011;23758;42.640;23.302;2023-05-07T12:38:51;2.00;;;1.90;;
37931;SDS011;23758;42.640;23.302;2023-05-07T12:41:16;1.90;;;1.80;;
37931;SDS011;23758;42.640;23.302;2023-05-07T12:43:43;2.28;;;2.08;;
37931;SDS011;23758;42.640;23.302;2023-05-07T12:46:09;2.00;;;1.90;;
37931;SDS011;23758;42.640;23.302;2023-05-07T12:48:38;2.50;;;2.30;;
37931;SDS011;23758;42.640;23.302;2023-05-07T12:51:04;1.90;;;1.80;;
37931;SDS011;23758;42.640;23.302;2023-05-07T12:53:30;2.00;;;1.90;;
37931;SDS011;23758;42.640;23.302;2023-05-07T12:55:57;2.35;;;2.25;;
37931;SDS011;23758;42.640;23.302;2023-05-07T12:58:27;2.05;;;1.92;;
37931;SDS011;23758;42.640;23.302;2023-05-07T13:00:54;2.50;;;2.30;;
37931;SDS011;23758;42.640;23.302;2023-05-07T13:05:51;2.00;;;1.90;;
37931;SDS011;23758;42.640;23.302;2023-05-07T13:08:24;1.80;;;1.70;;
37931;SDS011;23758;42.640;23.302;2023-05-07T13:10:53;2.50;;;2.30;;
37931;SDS011;23758;42.640;23.302;2023-05-07T13:13:19;1.95;;;1.85;;
37931;SDS011;23758;42.640;23.302;2023-05-07T13:15:45;1.90;;;1.80;;
37931;SDS011;23758;42.640;23.302;2023-05-07T13:18:11;2.20;;;2.10;;
37931;SDS011;23758;42.640;23.302;2023-05-07T13:20:37;4.47;;;1.90;;
37931;SDS011;23758;42.640;23.302;2023-05-07T13:23:03;1.80;;;1.70;;
37931;SDS011;23758;42.640;23.302;2023-05-07T13:25:29;1.90;;;1.80;;
37931;SDS011;23758;42.640;23.302;2023-05-07T13:27:56;1.85;;;1.75;;
37931;SDS011;23758;42.640;23.302;2023-05-07T13:30:22;1.75;;;1.65;;
37931;SDS011;23758;42.640;23.302;2023-05-07T13:32:47;2.03;;;1.90;;
37931;SDS011;23758;42.640;23.302;2023-05-07T13:35:14;1.80;;;1.70;;
37931;SDS011;23758;42.640;23.302;2023-05-07T13:37:39;12.30;;;2.10;;
37931;SDS011;23758;42.640;23.302;2023-05-07T13:40:05;1.90;;;1.80;;
37931;SDS011;23758;42.640;23.302;2023-05-07T13:42:31;2.00;;;1.85;;
37931;SDS011;23758;42.640;23.302;2023-05-07T13:44:56;1.90;;;1.80;;
37931;SDS011;23758;42.640;23.302;2023-05-07T13:47:22;1.60;;;1.50;;
37931;SDS011;23758;42.640;23.302;2023-05-07T13:49:47;1.80;;;1.70;;
37931;SDS011;23758;42.640;23.302;2023-05-07T13:52:15;1.90;;;1.80;;
37931;SDS011;23758;42.640;23.302;2023-05-07T13:54:41;1.70;;;1.60;;
37931;SDS011;23758;42.640;23.302;2023-05-07T13:57:06;1.80;;;1.70;;
37931;SDS011;23758;42.640;23.302;2023-05-07T13:59:32;2.00;;;1.90;;
37931;SDS011;23758;42.640;23.302;2023-05-07T14:01:57;1.80;;;1.70;;
37931;SDS011;23758;42.640;23.302;2023-05-07T14:04:23;1.67;;;1.58;;
37931;SDS011;23758;42.640;23.302;2023-05-07T14:06:48;1.90;;;1.80;;
37931;SDS011;23758;42.640;23.302;2023-05-07T14:09:14;1.80;;;1.70;;
37931;SDS011;23758;42.640;23.302;2023-05-07T14:11:40;1.90;;;1.80;;
37931;SDS011;23758;42.640;23.302;2023-05-07T14:14:06;1.80;;;1.70;;
37931;SDS011;23758;42.640;23.302;2023-05-07T14:16:31;1.70;;;1.60;;
37931;SDS011;23758;42.640;23.302;2023-05-07T14:18:57;1.80;;;1.70;;
37931;SDS011;23758;42.640;23.302;2023-05-07T14:21:22;1.63;;;1.52;;
37931;SDS011;23758;42.640;23.302;2023-05-07T14:23:48;2.13;;;2.03;;
37931;SDS011;23758;42.640;23.302;2023-05-07T14:26:13;2.28;;;2.08;;
37931;SDS011;23758;42.640;23.302;2023-05-07T14:28:39;1.80;;;1.70;;
37931;SDS011;23758;42.640;23.302;2023-05-07T14:31:04;2.00;;;1.90;;
37931;SDS011;23758;42.640;23.302;2023-05-07T14:33:31;2.10;;;2.00;;
37931;SDS011;23758;42.640;23.302;2023-05-07T14:35:56;1.85;;;1.75;;
37931;SDS011;23758;42.640;23.302;2023-05-07T14:38:22;1.70;;;1.60;;
37931;SDS011;23758;42.640;23.302;2023-05-07T14:40:47;1.80;;;1.70;;
37931;SDS011;23758;42.640;23.302;2023-05-07T14:43:13;1.80;;;1.70;;
37931;SDS011;23758;42.640;23.302;2023-05-07T14:45:38;1.90;;;1.80;;
37931;SDS011;23758;42.640;23.302;2023-05-07T14:48:04;2.00;;;1.90;;